Buoy 32622

sailwx.info

Track history (hours):
 
Tides and Currents Weather Stations Pressure Air Temp Water Temp Dewpoint Dewpoint Depression Visibility Wind Speed Wind Dir Waves Ship Positions

Aadnyj

Last reported at 2018-Feb-17 22:00 UTC. Time now 2018-Feb-18 04:39 UTC.
Position S 17°14' E 169°01'.

Length 56 m.

Type: Towing. MMSI: 413600286.

Water temperature 29.3 ° C

Date/timePositionNaut miles runAvg speedWind from/ knotsBaromVisibWave heightAir tempDewpointWater temp
2018-Feb-17 22:00S 17°14' E 169°01'5 2.7 29.3
2018-Feb-17 20:00S 17°10' E 168°58'0 0.0 29.2
2018-Feb-17 19:00S 17°10' E 168°58'1 1.2 29.2
2018-Feb-17 18:00S 17°08' E 168°58'0 0.0 29.2
2018-Feb-17 17:00S 17°08' E 168°58'6 2.8 29.2
2018-Feb-17 15:00S 17°03' E 168°57'1 0.1 29.3
2018-Feb-17 11:00S 17°03' E 168°56'2 1.8 29.3
2018-Feb-17 10:00S 17°01' E 168°56'5 4.6 29.3
2018-Feb-17 09:00S 16°58' E 168°53'0 0.0 29.3
2018-Feb-17 08:00S 16°58' E 168°53'0 0.0 29.4
2018-Feb-17 07:00S 16°58' E 168°53'3 2.7 29.4
2018-Feb-17 06:00S 16°55' E 168°52'0 0.0 29.4
2018-Feb-17 05:00S 16°55' E 168°52'8 7.8 29.4
2018-Feb-17 04:00S 16°47' E 168°52'2 0.4 29.4
2018-Feb-16 22:00S 16°45' E 168°52'1 0.6 29.1
2018-Feb-16 21:00S 16°44' E 168°52'2 2.4 29.1
2018-Feb-16 20:00S 16°42' E 168°52'0 0.0 29.0
2018-Feb-16 19:00S 16°42' E 168°52'0 0.0 29.0
2018-Feb-16 18:00S 16°42' E 168°52'1 0.6 29.0
2018-Feb-16 17:00S 16°41' E 168°52'4 4.0 29.1
2018-Feb-16 16:00S 16°38' E 168°50'0 0.0 29.1
2018-Feb-16 15:00S 16°38' E 168°50'1 0.2 29.0
2018-Feb-16 10:00S 16°37' E 168°51'5 5.5 29.0
2018-Feb-16 09:00S 16°35' E 168°46'0 0.0 29.0
2018-Feb-16 08:00S 16°35' E 168°46'0 0.0 29.1
2018-Feb-16 07:00S 16°35' E 168°46'0 0.0 29.1
2018-Feb-16 06:00S 16°35' E 168°46'5 2.3 29.2
2018-Feb-16 04:00S 16°32' E 168°42'0 0.0 29.2
2018-Feb-15 23:00S 16°32' E 168°42'3 2.6 29.1
2018-Feb-15 22:00S 16°31' E 168°40'2 1.8 29.0
2018-Feb-15 21:00S 16°31' E 168°38'3 1.6 29.0
2018-Feb-15 19:00S 16°28' E 168°39'0 0.0 29.0
2018-Feb-15 18:00S 16°28' E 168°39'0 0.0 29.0
2018-Feb-15 17:00S 16°28' E 168°39'2 1.9 29.1
2018-Feb-15 16:00S 16°26' E 168°40'0 0.0 29.1
2018-Feb-15 15:00S 16°26' E 168°40'0 0.0 29.1
2018-Feb-15 11:00S 16°26' E 168°40'1 0.6 29.1
2018-Feb-15 10:00S 16°26' E 168°39'1 0.6 29.1
2018-Feb-15 09:00S 16°26' E 168°40'0 0.0 29.1
2018-Feb-15 08:00S 16°26' E 168°40'1 0.8 29.0
2018-Feb-15 07:00S 16°25' E 168°39'0 0.0 29.1
2018-Feb-15 06:00S 16°25' E 168°39'2 2.1 29.1
2018-Feb-15 05:00S 16°26' E 168°41'0 0.0 29.1
2018-Feb-15 04:00S 16°26' E 168°41'1 0.8 29.2
2018-Feb-15 03:00S 16°27' E 168°40'1 0.1 29.1
2018-Feb-14 22:00S 16°28' E 168°40'1 1.2 29.0
2018-Feb-14 21:00S 16°29' E 168°40'1 0.8 29.0
2018-Feb-14 20:00S 16°29' E 168°40'2 1.8 29.1
2018-Feb-14 19:00S 16°29' E 168°41'1 0.6 29.1
2018-Feb-14 18:00S 16°29' E 168°41'5 2.3 29.1
2018-Feb-14 16:00S 16°30' E 168°37'0 0.0 29.1
2018-Feb-14 15:00S 16°30' E 168°37'0 0.0 29.1
2018-Feb-14 11:00S 16°30' E 168°37'1 0.6 29.1
2018-Feb-14 10:00S 16°30' E 168°37'1 1.2 29.2
2018-Feb-14 09:00S 16°30' E 168°36'0 0.0 29.2
2018-Feb-14 08:00S 16°30' E 168°36'1 0.8 29.2
2018-Feb-14 07:00S 16°29' E 168°37'0 0.0 29.2
2018-Feb-14 06:00S 16°29' E 168°37'2 1.7 29.2
2018-Feb-14 05:00S 16°31' E 168°35'0 0.0 29.2
2018-Feb-14 04:00S 16°31' E 168°35'3 2.6 29.1
2018-Feb-14 03:00S 16°32' E 168°33'0 0.0 29.1
2018-Feb-13 23:00S 16°32' E 168°33'3 3.4 29.1
2018-Feb-13 22:00S 16°34' E 168°36'0 0.0 29.0
2018-Feb-13 21:00S 16°34' E 168°36'0 0.0 28.9
2018-Feb-13 20:00S 16°34' E 168°36'1 1.3 28.9
2018-Feb-13 19:00S 16°34' E 168°37'0 0.0 29.0
2018-Feb-13 18:00S 16°34' E 168°37'0 0.0 29.0
2018-Feb-13 16:00S 16°34' E 168°37'2 1.1 29.0
2018-Feb-13 14:00S 16°36' E 168°38'1 0.2 29.1
2018-Feb-13 11:00S 16°36' E 168°38'1 0.6 29.2
2018-Feb-13 10:00S 16°36' E 168°38'1 1.3 29.2
2018-Feb-13 09:00S 16°37' E 168°39'2 2.1 29.2
2018-Feb-13 08:00S 16°39' E 168°40'0 0.0 29.3
2018-Feb-13 07:00S 16°39' E 168°40'0 0.0 29.4
2018-Feb-13 06:00S 16°39' E 168°40'1 1.3 29.4
2018-Feb-13 05:00S 16°40' E 168°40'2 1.2 29.4
2018-Feb-13 03:00S 16°43' E 168°40'0 0.0 29.4
2018-Feb-12 22:00S 16°43' E 168°40'1 1.1 29.1
2018-Feb-12 21:00S 16°43' E 168°39'0 0.0 29.1
2018-Feb-12 20:00S 16°43' E 168°39'2 1.7 29.1
2018-Feb-12 19:00S 16°43' E 168°41'0 0.0 29.1
2018-Feb-12 18:00S 16°43' E 168°41'1 0.6 29.1
2018-Feb-12 17:00S 16°43' E 168°41'0 0.0 29.1
2018-Feb-12 16:00S 16°43' E 168°41'2 1.8 29.1
2018-Feb-12 15:00S 16°43' E 168°43'2 1.8 29.1
2018-Feb-12 14:00S 16°43' E 168°41'2 0.6 29.1
2018-Feb-12 11:00S 16°43' E 168°43'2 1.7 29.2
2018-Feb-12 10:00S 16°43' E 168°44'0 0.0 29.2
2018-Feb-12 09:00S 16°43' E 168°44'1 0.6 29.3
2018-Feb-12 08:00S 16°42' E 168°44'1 0.6 29.3
2018-Feb-12 07:00S 16°41' E 168°44'2 2.4 29.4
2018-Feb-12 06:00S 16°42' E 168°47'1 0.6 29.4
2018-Feb-12 05:00S 16°43' E 168°47'0 0.0 29.4
2018-Feb-12 04:00S 16°43' E 168°47'1 0.6 29.5
2018-Feb-12 03:00S 16°42' E 168°47'4 0.9 29.5
2018-Feb-11 23:00S 16°43' E 168°50'1 0.6 29.2
2018-Feb-11 22:00S 16°44' E 168°50'2 1.8 29.2
2018-Feb-11 21:00S 16°43' E 168°49'3 1.7 29.1
2018-Feb-11 19:00S 16°43' E 168°52'0 0.0 29.1
2018-Feb-11 18:00S 16°43' E 168°52'1 1.3 29.2
2018-Feb-11 17:00S 16°43' E 168°51'1 1.3 29.2
2018-Feb-11 16:00S 16°41' E 168°50'1 0.1 29.1
2018-Feb-11 11:00S 16°41' E 168°50'1 0.8 29.3
2018-Feb-11 10:00S 16°40' E 168°51'0 0.0 29.4
2018-Feb-11 09:00S 16°40' E 168°51'3 2.9 29.4
2018-Feb-11 08:00S 16°40' E 168°54'0 0.0 29.4
2018-Feb-11 07:00S 16°40' E 168°54'0 0.0 29.6
2018-Feb-11 06:00S 16°40' E 168°54'0 0.0 29.6
2018-Feb-11 05:00S 16°40' E 168°54'2 2.1 29.8
2018-Feb-11 04:00S 16°38' E 168°55'2 0.3 29.9
2018-Feb-10 21:00S 16°38' E 168°58'1 0.6 29.2
2018-Feb-10 20:00S 16°38' E 168°58'1 0.6 29.1
2018-Feb-10 19:00S 16°38' E 168°58'1 0.6 29.2
2018-Feb-10 18:00S 16°38' E 168°58'0 0.0 29.2
2018-Feb-10 17:00S 16°38' E 168°58'0 0.0 29.2
2018-Feb-10 16:00S 16°38' E 168°58'0 0.0 29.2
2018-Feb-10 15:00S 16°38' E 168°58'2 0.5 29.3
2018-Feb-10 11:00S 16°38' E 169°00'1 1.1 29.4
2018-Feb-10 10:00S 16°38' E 169°01'1 0.8 29.4
2018-Feb-10 09:00S 16°37' E 169°01'0 0.0 29.5
2018-Feb-10 08:00S 16°37' E 169°01'0 0.0 29.5
2018-Feb-10 07:00S 16°37' E 169°01'0 0.0 29.6
2018-Feb-10 06:00S 16°37' E 169°01'1 1.3 29.6
2018-Feb-10 05:00S 16°38' E 169°02'2 2.1 29.6
2018-Feb-10 04:00S 16°36' E 169°03'0 0.0 29.7
2018-Feb-10 03:00S 16°36' E 169°03'1 0.1 29.7
2018-Feb-09 22:00S 16°36' E 169°04'0 0.0 29.5
2018-Feb-09 21:00S 16°36' E 169°04'1 0.6 29.5
2018-Feb-09 20:00S 16°36' E 169°04'0 0.0 29.4
2018-Feb-09 19:00S 16°36' E 169°04'2 2.4 29.4
2018-Feb-09 18:00S 16°35' E 169°07'1 0.6 29.4
2018-Feb-09 17:00S 16°35' E 169°07'0 0.0 29.4
2018-Feb-09 16:00S 16°35' E 169°07'4 0.7 29.5
2018-Feb-09 10:00S 16°32' E 169°10'1 1.3 29.6
2018-Feb-09 09:00S 16°31' E 169°11'1 0.8 29.6
2018-Feb-09 08:00S 16°32' E 169°10'2 1.8 29.7
2018-Feb-09 07:00S 16°31' E 169°12'2 2.3 29.8
2018-Feb-09 06:00S 16°31' E 169°14'0 0.0 29.8
2018-Feb-09 05:00S 16°31' E 169°14'2 1.8 29.8
2018-Feb-09 04:00S 16°29' E 169°14'0 0.0 29.8
2018-Feb-09 03:00S 16°29' E 169°14'0 0.0 29.8
2018-Feb-08 23:00S 16°29' E 169°14'3 2.9 29.4
2018-Feb-08 22:00S 16°29' E 169°17'0 0.0 29.4
2018-Feb-08 21:00S 16°29' E 169°17'1 0.8 29.3
2018-Feb-08 20:00S 16°30' E 169°17'2 1.2 29.3
2018-Feb-08 18:00S 16°28' E 169°19'0 0.0 29.3
2018-Feb-08 17:00S 16°28' E 169°19'3 1.3 29.3
2018-Feb-08 15:00S 16°27' E 169°21'1 0.1 29.3
2018-Feb-08 11:00S 16°26' E 169°21'0 0.0 29.4
2018-Feb-08 10:00S 16°26' E 169°21'0 0.0 29.5
2018-Feb-08 09:00S 16°26' E 169°21'1 0.6 29.5
2018-Feb-08 08:00S 16°26' E 169°21'1 0.6 29.6
2018-Feb-08 07:00S 16°25' E 169°21'0 0.0 29.6
2018-Feb-08 06:00S 16°25' E 169°21'6 5.9 29.6
2018-Feb-08 05:00S 16°24' E 169°27'0 0.0 29.7
2018-Feb-08 04:00S 16°24' E 169°27'1 0.1 29.6
2018-Feb-07 22:00S 16°23' E 169°28'   29.5
Track history (hours):
 
Tides and Currents Weather Stations Pressure Air Temp Water Temp Dewpoint Dewpoint Depression Visibility Wind Speed Wind Dir Waves Ship Positions

Aadnyj

Last reported at 2018-Feb-17 22:00 UTC. Time now 2018-Feb-18 04:39 UTC.
Position S 17°14' E 169°01'.

Length 56 m.

Type: Towing. MMSI: 413600286.

Water temperature 29.3 ° C

Date/timePositionNaut miles runAvg speedWind from/ knotsBaromVisibWave heightAir tempDewpointWater temp
2018-Feb-17 22:00S 17°14' E 169°01'5 2.7 29.3
2018-Feb-17 20:00S 17°10' E 168°58'0 0.0 29.2
2018-Feb-17 19:00S 17°10' E 168°58'1 1.2 29.2
2018-Feb-17 18:00S 17°08' E 168°58'0 0.0 29.2
2018-Feb-17 17:00S 17°08' E 168°58'6 2.8 29.2
2018-Feb-17 15:00S 17°03' E 168°57'1 0.1 29.3
2018-Feb-17 11:00S 17°03' E 168°56'2 1.8 29.3
2018-Feb-17 10:00S 17°01' E 168°56'5 4.6 29.3
2018-Feb-17 09:00S 16°58' E 168°53'0 0.0 29.3
2018-Feb-17 08:00S 16°58' E 168°53'0 0.0 29.4
2018-Feb-17 07:00S 16°58' E 168°53'3 2.7 29.4
2018-Feb-17 06:00S 16°55' E 168°52'0 0.0 29.4
2018-Feb-17 05:00S 16°55' E 168°52'8 7.8 29.4
2018-Feb-17 04:00S 16°47' E 168°52'2 0.4 29.4
2018-Feb-16 22:00S 16°45' E 168°52'1 0.6 29.1
2018-Feb-16 21:00S 16°44' E 168°52'2 2.4 29.1
2018-Feb-16 20:00S 16°42' E 168°52'0 0.0 29.0
2018-Feb-16 19:00S 16°42' E 168°52'0 0.0 29.0
2018-Feb-16 18:00S 16°42' E 168°52'1 0.6 29.0
2018-Feb-16 17:00S 16°41' E 168°52'4 4.0 29.1
2018-Feb-16 16:00S 16°38' E 168°50'0 0.0 29.1
2018-Feb-16 15:00S 16°38' E 168°50'1 0.2 29.0
2018-Feb-16 10:00S 16°37' E 168°51'5 5.5 29.0
2018-Feb-16 09:00S 16°35' E 168°46'0 0.0 29.0
2018-Feb-16 08:00S 16°35' E 168°46'0 0.0 29.1
2018-Feb-16 07:00S 16°35' E 168°46'0 0.0 29.1
2018-Feb-16 06:00S 16°35' E 168°46'5 2.3 29.2
2018-Feb-16 04:00S 16°32' E 168°42'0 0.0 29.2
2018-Feb-15 23:00S 16°32' E 168°42'3 2.6 29.1
2018-Feb-15 22:00S 16°31' E 168°40'2 1.8 29.0
2018-Feb-15 21:00S 16°31' E 168°38'3 1.6 29.0
2018-Feb-15 19:00S 16°28' E 168°39'0 0.0 29.0
2018-Feb-15 18:00S 16°28' E 168°39'0 0.0 29.0
2018-Feb-15 17:00S 16°28' E 168°39'2 1.9 29.1
2018-Feb-15 16:00S 16°26' E 168°40'0 0.0 29.1
2018-Feb-15 15:00S 16°26' E 168°40'0 0.0 29.1
2018-Feb-15 11:00S 16°26' E 168°40'1 0.6 29.1
2018-Feb-15 10:00S 16°26' E 168°39'1 0.6 29.1
2018-Feb-15 09:00S 16°26' E 168°40'0 0.0 29.1
2018-Feb-15 08:00S 16°26' E 168°40'1 0.8 29.0
2018-Feb-15 07:00S 16°25' E 168°39'0 0.0 29.1
2018-Feb-15 06:00S 16°25' E 168°39'2 2.1 29.1
2018-Feb-15 05:00S 16°26' E 168°41'0 0.0 29.1
2018-Feb-15 04:00S 16°26' E 168°41'1 0.8 29.2
2018-Feb-15 03:00S 16°27' E 168°40'1 0.1 29.1
2018-Feb-14 22:00S 16°28' E 168°40'1 1.2 29.0
2018-Feb-14 21:00S 16°29' E 168°40'1 0.8 29.0
2018-Feb-14 20:00S 16°29' E 168°40'2 1.8 29.1
2018-Feb-14 19:00S 16°29' E 168°41'1 0.6 29.1
2018-Feb-14 18:00S 16°29' E 168°41'5 2.3 29.1
2018-Feb-14 16:00S 16°30' E 168°37'0 0.0 29.1
2018-Feb-14 15:00S 16°30' E 168°37'0 0.0 29.1
2018-Feb-14 11:00S 16°30' E 168°37'1 0.6 29.1
2018-Feb-14 10:00S 16°30' E 168°37'1 1.2 29.2
2018-Feb-14 09:00S 16°30' E 168°36'0 0.0 29.2
2018-Feb-14 08:00S 16°30' E 168°36'1 0.8 29.2
2018-Feb-14 07:00S 16°29' E 168°37'0 0.0 29.2
2018-Feb-14 06:00S 16°29' E 168°37'2 1.7 29.2
2018-Feb-14 05:00S 16°31' E 168°35'0 0.0 29.2
2018-Feb-14 04:00S 16°31' E 168°35'3 2.6 29.1
2018-Feb-14 03:00S 16°32' E 168°33'0 0.0 29.1
2018-Feb-13 23:00S 16°32' E 168°33'3 3.4 29.1
2018-Feb-13 22:00S 16°34' E 168°36'0 0.0 29.0
2018-Feb-13 21:00S 16°34' E 168°36'0 0.0 28.9
2018-Feb-13 20:00S 16°34' E 168°36'1 1.3 28.9
2018-Feb-13 19:00S 16°34' E 168°37'0 0.0 29.0
2018-Feb-13 18:00S 16°34' E 168°37'0 0.0 29.0
2018-Feb-13 16:00S 16°34' E 168°37'2 1.1 29.0
2018-Feb-13 14:00S 16°36' E 168°38'1 0.2 29.1
2018-Feb-13 11:00S 16°36' E 168°38'1 0.6 29.2
2018-Feb-13 10:00S 16°36' E 168°38'1 1.3 29.2
2018-Feb-13 09:00S 16°37' E 168°39'2 2.1 29.2
2018-Feb-13 08:00S 16°39' E 168°40'0 0.0 29.3
2018-Feb-13 07:00S 16°39' E 168°40'0 0.0 29.4
2018-Feb-13 06:00S 16°39' E 168°40'1 1.3 29.4
2018-Feb-13 05:00S 16°40' E 168°40'2 1.2 29.4
2018-Feb-13 03:00S 16°43' E 168°40'0 0.0 29.4
2018-Feb-12 22:00S 16°43' E 168°40'1 1.1 29.1
2018-Feb-12 21:00S 16°43' E 168°39'0 0.0 29.1
2018-Feb-12 20:00S 16°43' E 168°39'2 1.7 29.1
2018-Feb-12 19:00S 16°43' E 168°41'0 0.0 29.1
2018-Feb-12 18:00S 16°43' E 168°41'1 0.6 29.1
2018-Feb-12 17:00S 16°43' E 168°41'0 0.0 29.1
2018-Feb-12 16:00S 16°43' E 168°41'2 1.8 29.1
2018-Feb-12 15:00S 16°43' E 168°43'2 1.8 29.1
2018-Feb-12 14:00S 16°43' E 168°41'2 0.6 29.1
2018-Feb-12 11:00S 16°43' E 168°43'2 1.7 29.2
2018-Feb-12 10:00S 16°43' E 168°44'0 0.0 29.2
2018-Feb-12 09:00S 16°43' E 168°44'1 0.6 29.3
2018-Feb-12 08:00S 16°42' E 168°44'1 0.6 29.3
2018-Feb-12 07:00S 16°41' E 168°44'2 2.4 29.4
2018-Feb-12 06:00S 16°42' E 168°47'1 0.6 29.4
2018-Feb-12 05:00S 16°43' E 168°47'0 0.0 29.4
2018-Feb-12 04:00S 16°43' E 168°47'1 0.6 29.5
2018-Feb-12 03:00S 16°42' E 168°47'4 0.9 29.5
2018-Feb-11 23:00S 16°43' E 168°50'1 0.6 29.2
2018-Feb-11 22:00S 16°44' E 168°50'2 1.8 29.2
2018-Feb-11 21:00S 16°43' E 168°49'3 1.7 29.1
2018-Feb-11 19:00S 16°43' E 168°52'0 0.0 29.1
2018-Feb-11 18:00S 16°43' E 168°52'1 1.3 29.2
2018-Feb-11 17:00S 16°43' E 168°51'1 1.3 29.2
2018-Feb-11 16:00S 16°41' E 168°50'1 0.1 29.1
2018-Feb-11 11:00S 16°41' E 168°50'1 0.8 29.3
2018-Feb-11 10:00S 16°40' E 168°51'0 0.0 29.4
2018-Feb-11 09:00S 16°40' E 168°51'3 2.9 29.4
2018-Feb-11 08:00S 16°40' E 168°54'0 0.0 29.4
2018-Feb-11 07:00S 16°40' E 168°54'0 0.0 29.6
2018-Feb-11 06:00S 16°40' E 168°54'0 0.0 29.6
2018-Feb-11 05:00S 16°40' E 168°54'2 2.1 29.8
2018-Feb-11 04:00S 16°38' E 168°55'2 0.3 29.9
2018-Feb-10 21:00S 16°38' E 168°58'1 0.6 29.2
2018-Feb-10 20:00S 16°38' E 168°58'1 0.6 29.1
2018-Feb-10 19:00S 16°38' E 168°58'1 0.6 29.2
2018-Feb-10 18:00S 16°38' E 168°58'0 0.0 29.2
2018-Feb-10 17:00S 16°38' E 168°58'0 0.0 29.2
2018-Feb-10 16:00S 16°38' E 168°58'0 0.0 29.2
2018-Feb-10 15:00S 16°38' E 168°58'2 0.5 29.3
2018-Feb-10 11:00S 16°38' E 169°00'1 1.1 29.4
2018-Feb-10 10:00S 16°38' E 169°01'1 0.8 29.4
2018-Feb-10 09:00S 16°37' E 169°01'0 0.0 29.5
2018-Feb-10 08:00S 16°37' E 169°01'0 0.0 29.5
2018-Feb-10 07:00S 16°37' E 169°01'0 0.0 29.6
2018-Feb-10 06:00S 16°37' E 169°01'1 1.3 29.6
2018-Feb-10 05:00S 16°38' E 169°02'2 2.1 29.6
2018-Feb-10 04:00S 16°36' E 169°03'0 0.0 29.7
2018-Feb-10 03:00S 16°36' E 169°03'1 0.1 29.7
2018-Feb-09 22:00S 16°36' E 169°04'0 0.0 29.5
2018-Feb-09 21:00S 16°36' E 169°04'1 0.6 29.5
2018-Feb-09 20:00S 16°36' E 169°04'0 0.0 29.4
2018-Feb-09 19:00S 16°36' E 169°04'2 2.4 29.4
2018-Feb-09 18:00S 16°35' E 169°07'1 0.6 29.4
2018-Feb-09 17:00S 16°35' E 169°07'0 0.0 29.4
2018-Feb-09 16:00S 16°35' E 169°07'4 0.7 29.5
2018-Feb-09 10:00S 16°32' E 169°10'1 1.3 29.6
2018-Feb-09 09:00S 16°31' E 169°11'1 0.8 29.6
2018-Feb-09 08:00S 16°32' E 169°10'2 1.8 29.7
2018-Feb-09 07:00S 16°31' E 169°12'2 2.3 29.8
2018-Feb-09 06:00S 16°31' E 169°14'0 0.0 29.8
2018-Feb-09 05:00S 16°31' E 169°14'2 1.8 29.8
2018-Feb-09 04:00S 16°29' E 169°14'0 0.0 29.8
2018-Feb-09 03:00S 16°29' E 169°14'0 0.0 29.8
2018-Feb-08 23:00S 16°29' E 169°14'3 2.9 29.4
2018-Feb-08 22:00S 16°29' E 169°17'0 0.0 29.4
2018-Feb-08 21:00S 16°29' E 169°17'1 0.8 29.3
2018-Feb-08 20:00S 16°30' E 169°17'2 1.2 29.3
2018-Feb-08 18:00S 16°28' E 169°19'0 0.0 29.3
2018-Feb-08 17:00S 16°28' E 169°19'3 1.3 29.3
2018-Feb-08 15:00S 16°27' E 169°21'1 0.1 29.3
2018-Feb-08 11:00S 16°26' E 169°21'0 0.0 29.4
2018-Feb-08 10:00S 16°26' E 169°21'0 0.0 29.5
2018-Feb-08 09:00S 16°26' E 169°21'1 0.6 29.5
2018-Feb-08 08:00S 16°26' E 169°21'1 0.6 29.6
2018-Feb-08 07:00S 16°25' E 169°21'0 0.0 29.6
2018-Feb-08 06:00S 16°25' E 169°21'6 5.9 29.6
2018-Feb-08 05:00S 16°24' E 169°27'0 0.0 29.7
2018-Feb-08 04:00S 16°24' E 169°27'1 0.1 29.6
2018-Feb-07 22:00S 16°23' E 169°28'   29.5

Dump ship's entire track history